Stratford, Virginia
Current Conditions -  °F | °C
As of 1:15 AM on Tuesday 21 Oct 2014 (Local Time) from KXSA Reporting Station
Light Rain Light Rain  
Wind Chill: 56°   Ceiling: 6500
Heat Index: 56°   Visibility: 10mi
Dew Point: 44°   Wind: 3mph
Humidity: 66%   Direction: 180°S
Pressure: 29.95"   Gusts: NA
Location:  38.12°N, 76.81°W
Report Text: KXSA 210515Z AUTO 18003KT 10SM -RA OVC065 13/07 A2995 RMK AO2 T01310068
Loading
Personal Weather Stations






























Interactive Weather Map
Tropical Storm Tracking
New forecast layout! Learn more

10-Day Weather Forecast

Advertisements
Track Severe Weather on mobile